Time;durP1;ratioP1;P1;durP2;ratioP2;P2;SDS_P1;SDS_P2;PMS_P1;PMS_P2;Temp;Humidity;BMP_temperature;BMP_pressure;BME280_temperature;BME280_humidity;BME280_pressure;Samples;Min_cycle;Max_cycle;Signal;HPM_P1;HPM_P2
2021/07/24 00:00:27;;;;;;;26.3;18.2;;;;;;;18.52;80.98145;934.9426;;;;
2021/07/24 00:02:52;;;;;;;24.8;17.9;;;;;;;18.59;80.48145;934.9305;;;;
2021/07/24 00:05:19;;;;;;;23.9;18;;;;;;;18.6;80.29688;934.9044;;;;
2021/07/24 00:07:44;;;;;;;24.1;17.8;;;;;;;18.6;80.33301;934.8688;;;;
2021/07/24 00:10:12;;;;;;;22.5;18.1;;;;;;;18.6;80.30859;934.8987;;;;
2021/07/24 00:12:37;;;;;;;24;17.7;;;;;;;18.59;80.22559;934.8272;;;;
2021/07/24 00:15:02;;;;;;;22.8;18.4;;;;;;;18.59;80.15527;934.8134;;;;
2021/07/24 00:17:27;;;;;;;23.4;17.3;;;;;;;18.57;80.30371;934.7374;;;;
2021/07/24 00:19:53;;;;;;;23.2;17.2;;;;;;;18.62;80.15039;934.7129;;;;
2021/07/24 00:22:18;;;;;;;23.7;16.8;;;;;;;18.6;79.6123;934.7277;;;;
2021/07/24 00:24:43;;;;;;;25.8;18.7;;;;;;;18.63;78.96387;934.6921;;;;
2021/07/24 00:27:09;;;;;;;23.7;17.8;;;;;;;18.57;79.67578;934.6342;;;;
2021/07/24 00:29:34;;;;;;;22.4;17.5;;;;;;;18.42;80.46191;934.6397;;;;
2021/07/24 00:31:59;;;;;;;23.3;18.2;;;;;;;18.27;80.99316;934.574;;;;
2021/07/24 00:34:26;;;;;;;25.2;18.9;;;;;;;18.19;81.40918;934.5266;;;;
2021/07/24 00:36:52;;;;;;;23.7;17.7;;;;;;;18.14;81.84082;934.4941;;;;
2021/07/24 00:39:17;;;;;;;25.3;18.4;;;;;;;18.19;81.41992;934.4824;;;;
2021/07/24 00:41:42;;;;;;;21.1;17.4;;;;;;;18.17;81.39258;934.4185;;;;
2021/07/24 00:44:10;;;;;;;24.4;18.8;;;;;;;18.16;81.1709;934.4188;;;;
2021/07/24 00:46:35;;;;;;;20.3;16.9;;;;;;;18.1;81.64648;934.3954;;;;
2021/07/24 00:49:00;;;;;;;23.4;18.5;;;;;;;17.98;82.27344;934.3933;;;;
2021/07/24 00:51:27;;;;;;;24.6;18.5;;;;;;;17.92;82.58887;934.2989;;;;
2021/07/24 00:53:55;;;;;;;24.1;18.1;;;;;;;17.96;82.375;934.3784;;;;
2021/07/24 00:56:19;;;;;;;21.8;17.4;;;;;;;17.93;82.39453;934.3186;;;;
2021/07/24 00:58:44;;;;;;;23;17.7;;;;;;;17.91;82.67969;934.2413;;;;
2021/07/24 01:01:09;;;;;;;23;18;;;;;;;17.93;82.32324;934.2745;;;;
2021/07/24 01:03:35;;;;;;;22.2;18;;;;;;;17.9;82.42285;934.1978;;;;
2021/07/24 01:06:01;;;;;;;26.2;17.9;;;;;;;17.86;82.64844;934.198;;;;
2021/07/24 01:08:27;;;;;;;21.6;17.6;;;;;;;17.82;82.69824;934.1184;;;;
2021/07/24 01:10:52;;;;;;;26;18.9;;;;;;;17.74;82.90332;934.1822;;;;
2021/07/24 01:13:18;;;;;;;23.7;17.7;;;;;;;17.86;82.68164;934.2167;;;;
2021/07/24 01:15:47;;;;;;;24.2;18.4;;;;;;;17.77;82.96582;934.2241;;;;
2021/07/24 01:18:14;;;;;;;25.7;18.7;;;;;;;17.68;83.7168;934.2078;;;;
2021/07/24 01:20:40;;;;;;;22;17.8;;;;;;;17.75;83.4502;934.2004;;;;
2021/07/24 01:23:04;;;;;;;24.7;17.5;;;;;;;17.73;83.44727;934.2098;;;;
2021/07/24 01:25:33;;;;;;;22.2;18.1;;;;;;;17.77;83.34961;934.2073;;;;
2021/07/24 01:27:59;;;;;;;25;18;;;;;;;17.77;83.17676;934.1878;;;;
2021/07/24 01:30:24;;;;;;;22.1;17.9;;;;;;;17.56;84.12402;934.1039;;;;
2021/07/24 01:32:50;;;;;;;22.6;17.8;;;;;;;17.52;84.69336;934.1469;;;;
2021/07/24 01:35:15;;;;;;;23.6;16.9;;;;;;;17.59;84.12891;934.0508;;;;
2021/07/24 01:37:42;;;;;;;22.5;17.9;;;;;;;17.65;83.7793;934.1439;;;;
2021/07/24 01:40:07;;;;;;;23.1;18;;;;;;;17.65;83.65234;934.0964;;;;
2021/07/24 01:42:33;;;;;;;21.8;17.3;;;;;;;17.7;83.34766;934.0585;;;;
2021/07/24 01:44:58;;;;;;;21.1;17.6;;;;;;;17.8;82.86719;934.035;;;;
2021/07/24 01:47:26;;;;;;;20.1;17.4;;;;;;;17.82;82.60449;934.0217;;;;
2021/07/24 01:54:41;;;;;;;22.5;16.5;;;;;;;17.84;82.41113;934.0545;;;;
2021/07/24 01:57:06;;;;;;;20.7;16.3;;;;;;;17.71;83.1416;934.0717;;;;
2021/07/24 01:59:32;;;;;;;21.5;17.7;;;;;;;17.65;83.16406;934.0449;;;;
2021/07/24 02:01:57;;;;;;;23.3;17.6;;;;;;;17.66;82.94727;933.9986;;;;
2021/07/24 02:04:22;;;;;;;23.2;17;;;;;;;17.74;82.8916;934.0189;;;;
2021/07/24 02:06:49;;;;;;;22.1;17.5;;;;;;;17.59;83.12891;933.9598;;;;
2021/07/24 02:09:14;;;;;;;22.5;17.7;;;;;;;17.44;84.13281;934.0021;;;;
2021/07/24 02:11:42;;;;;;;21.1;17.4;;;;;;;17.31;84.62988;934.0773;;;;
2021/07/24 02:14:07;;;;;;;21.5;17.5;;;;;;;17.28;84.97266;934.1521;;;;
2021/07/24 02:16:32;;;;;;;22.9;18.1;;;;;;;17.31;84.93164;934.1482;;;;
2021/07/24 02:18:58;;;;;;;23.3;17.8;;;;;;;17.38;84.56445;934.2197;;;;
2021/07/24 02:21:23;;;;;;;21.2;17.2;;;;;;;17.35;84.47656;934.1666;;;;
2021/07/24 02:23:48;;;;;;;21.5;17.1;;;;;;;17.38;84.43555;934.1635;;;;
2021/07/24 02:26:15;;;;;;;21.8;18;;;;;;;17.46;83.99902;934.1796;;;;
2021/07/24 02:28:40;;;;;;;25;17.8;;;;;;;17.5;83.9707;934.1834;;;;
2021/07/24 02:31:09;;;;;;;23.2;17.1;;;;;;;17.5;83.92578;934.1254;;;;
2021/07/24 02:33:34;;;;;;;20.4;16.7;;;;;;;17.55;83.49219;934.0447;;;;
2021/07/24 02:36:00;;;;;;;20.6;17;;;;;;;17.58;83.16406;934.0084;;;;
2021/07/24 02:38:25;;;;;;;24.1;18;;;;;;;17.64;83.01172;934.0201;;;;
2021/07/24 02:40:52;;;;;;;21.8;17.5;;;;;;;17.71;82.21289;934.0566;;;;
2021/07/24 02:43:17;;;;;;;22.4;17.6;;;;;;;17.71;82.53809;934.1161;;;;
2021/07/24 02:45:43;;;;;;;24.9;17.9;;;;;;;17.48;83.63281;934.1194;;;;
2021/07/24 02:48:08;;;;;;;23.7;17.7;;;;;;;17.53;83.53516;934.0901;;;;
2021/07/24 02:50:34;;;;;;;23;17.7;;;;;;;17.61;83.03027;934.0833;;;;
2021/07/24 02:52:59;;;;;;;21.3;16.9;;;;;;;17.66;82.77148;934.0664;;;;
2021/07/24 02:55:25;;;;;;;21.9;16.9;;;;;;;17.58;83.17578;934.1227;;;;
2021/07/24 02:57:50;;;;;;;21.4;17.1;;;;;;;17.48;83.8877;934.0357;;;;
2021/07/24 03:00:22;;;;;;;23;16.7;;;;;;;17.49;83.87598;934.0693;;;;
2021/07/24 03:02:48;;;;;;;22.3;17;;;;;;;17.52;83.88184;934.0631;;;;
2021/07/24 03:05:13;;;;;;;21.7;17.8;;;;;;;17.46;84.08008;934.0901;;;;
2021/07/24 03:07:38;;;;;;;22;16.4;;;;;;;17.44;83.77344;933.9731;;;;
2021/07/24 03:10:03;;;;;;;21.5;17.1;;;;;;;17.52;83.55859;934.0694;;;;
2021/07/24 03:12:30;;;;;;;23.9;17;;;;;;;17.39;84.1123;934.1044;;;;
2021/07/24 03:14:56;;;;;;;19.2;15.7;;;;;;;17.44;83.82129;934.0825;;;;
2021/07/24 03:17:20;;;;;;;19.7;16.7;;;;;;;17.39;84.05469;934.1487;;;;
2021/07/24 03:19:46;;;;;;;22.5;16.7;;;;;;;17.47;83.74512;934.1311;;;;
2021/07/24 03:22:11;;;;;;;23.1;17.1;;;;;;;17.53;83.40918;934.0443;;;;
2021/07/24 03:24:39;;;;;;;21.4;17.1;;;;;;;17.58;83.46387;934.06;;;;
2021/07/24 03:27:04;;;;;;;20.6;17;;;;;;;17.5;83.56445;933.9878;;;;
2021/07/24 03:29:29;;;;;;;22;16.2;;;;;;;17.55;83.41309;934.01;;;;
2021/07/24 03:31:55;;;;;;;23.2;17.5;;;;;;;17.54;83.36426;934.0488;;;;
2021/07/24 03:34:21;;;;;;;22.8;17;;;;;;;17.49;83.44727;934.05;;;;
2021/07/24 03:36:47;;;;;;;20.8;16.1;;;;;;;17.36;84.08398;934.0658;;;;
2021/07/24 03:39:12;;;;;;;19.5;16.4;;;;;;;17.51;83.45215;933.9659;;;;
2021/07/24 03:41:40;;;;;;;21.3;16.4;;;;;;;17.59;83.11816;933.9517;;;;
2021/07/24 03:44:06;;;;;;;20.7;16.8;;;;;;;17.63;82.79102;933.8101;;;;
2021/07/24 03:46:32;;;;;;;19.7;16.4;;;;;;;17.75;82.40527;933.8525;;;;
2021/07/24 03:48:58;;;;;;;21.7;16.5;;;;;;;17.85;82.19238;933.803;;;;
2021/07/24 03:51:23;;;;;;;20.4;16;;;;;;;17.89;82.0498;933.7977;;;;
2021/07/24 03:53:48;;;;;;;21.5;16.3;;;;;;;17.93;81.40625;933.6236;;;;
2021/07/24 03:56:16;;;;;;;19.8;16;;;;;;;17.94;81.22363;933.6497;;;;
2021/07/24 03:58:41;;;;;;;19.3;15.5;;;;;;;17.92;81.63672;933.6406;;;;
2021/07/24 04:02:32;;;;;;;20.3;16;;;;;;;17.74;82.18359;933.6167;;;;
2021/07/24 04:04:55;;;;;;;19.3;16.3;;;;;;;17.72;82.05273;933.6069;;;;
2021/07/24 04:07:20;;;;;;;20.2;16;;;;;;;17.74;82.41504;933.6789;;;;
2021/07/24 04:09:45;;;;;;;23.5;16.3;;;;;;;17.63;82.67578;933.6619;;;;
2021/07/24 04:12:12;;;;;;;18.9;15.9;;;;;;;17.66;82.64355;933.6492;;;;
2021/07/24 04:14:37;;;;;;;21.7;16.8;;;;;;;17.75;82.56836;933.6891;;;;
2021/07/24 04:17:08;;;;;;;21.8;15.8;;;;;;;17.81;82.03223;933.6265;;;;
2021/07/24 04:19:33;;;;;;;27.3;16.1;;;;;;;17.84;81.8418;933.6267;;;;
2021/07/24 04:22:02;;;;;;;21.1;16.4;;;;;;;17.92;81.48535;933.59;;;;
2021/07/24 04:24:27;;;;;;;21.3;15.6;;;;;;;17.96;81.08691;933.5872;;;;
2021/07/24 04:26:56;;;;;;;21.2;16.2;;;;;;;17.91;81.34473;933.4919;;;;
2021/07/24 04:29:27;;;;;;;20.9;16.1;;;;;;;17.9;81.44727;933.497;;;;
2021/07/24 04:31:59;;;;;;;21;15.9;;;;;;;17.94;81.39746;933.4637;;;;
2021/07/24 04:34:25;;;;;;;19.3;15.6;;;;;;;18.15;80.49316;933.4697;;;;
2021/07/24 04:36:50;;;;;;;21.2;15.1;;;;;;;18.28;79.95996;933.5027;;;;
2021/07/24 04:39:17;;;;;;;19.5;14.7;;;;;;;18.39;79.20117;933.4609;;;;
2021/07/24 04:41:43;;;;;;;22.3;15.9;;;;;;;18.52;78.56055;933.4794;;;;
2021/07/24 04:44:10;;;;;;;19.5;15.4;;;;;;;18.68;79.24316;933.4411;;;;
2021/07/24 04:46:35;;;;;;;20.5;16;;;;;;;18.82;78.03223;933.475;;;;
2021/07/24 04:49:03;;;;;;;24;15.2;;;;;;;18.82;77.50977;933.4236;;;;
2021/07/24 04:51:29;;;;;;;19.7;15.3;;;;;;;18.8;77.41211;933.4692;;;;
2021/07/24 04:53:57;;;;;;;19.6;15.8;;;;;;;18.76;77.70898;933.3826;;;;
2021/07/24 04:56:22;;;;;;;20.5;16.4;;;;;;;18.6;78.59863;933.4681;;;;
2021/07/24 04:58:50;;;;;;;20.5;15;;;;;;;18.34;78.97168;933.4001;;;;
2021/07/24 05:01:15;;;;;;;21.5;15.4;;;;;;;18.62;78.63672;933.4716;;;;
2021/07/24 05:03:40;;;;;;;20.8;15.6;;;;;;;18.76;77.73145;933.41;;;;
2021/07/24 05:06:07;;;;;;;22.1;15.6;;;;;;;18.88;76.83301;933.4808;;;;
2021/07/24 05:08:32;;;;;;;20.1;14.9;;;;;;;19;76.43457;933.5281;;;;
2021/07/24 05:11:01;;;;;;;21.6;15.1;;;;;;;19.29;75.86914;933.5471;;;;
2021/07/24 05:13:26;;;;;;;20.3;14.9;;;;;;;19.45;74.92773;933.577;;;;
2021/07/24 05:15:55;;;;;;;20.4;14.9;;;;;;;19.53;75.03516;933.5647;;;;
2021/07/24 05:18:20;;;;;;;20.6;15.2;;;;;;;19.64;75.77637;933.4325;;;;
2021/07/24 05:20:48;;;;;;;20.4;15;;;;;;;19.73;75.05859;933.5189;;;;
2021/07/24 05:23:14;;;;;;;19;15.1;;;;;;;19.92;75.38086;933.4807;;;;
2021/07/24 05:25:44;;;;;;;20.5;15;;;;;;;20.3;72.78418;933.468;;;;
2021/07/24 05:28:13;;;;;;;20.5;14.5;;;;;;;20.4;72.3457;933.4958;;;;
2021/07/24 05:30:38;;;;;;;18.5;14.9;;;;;;;20.73;70.93652;933.5115;;;;
2021/07/24 05:33:05;;;;;;;21;14.3;;;;;;;21.05;69.14258;933.5201;;;;
2021/07/24 05:35:30;;;;;;;18.3;14.1;;;;;;;21.17;70.60156;933.5087;;;;
2021/07/24 05:37:57;;;;;;;20;15;;;;;;;21.38;70.02441;933.4883;;;;
2021/07/24 05:40:22;;;;;;;18.7;14.7;;;;;;;21.49;68.89551;933.4783;;;;
2021/07/24 05:42:50;;;;;;;18.2;13.8;;;;;;;21.77;67.30957;933.4277;;;;
2021/07/24 05:45:14;;;;;;;18.3;13.6;;;;;;;21.8;67.30273;933.4913;;;;
2021/07/24 05:47:42;;;;;;;19.3;14;;;;;;;21.47;68.3291;933.438;;;;
2021/07/24 05:50:07;;;;;;;18.9;14.5;;;;;;;21.43;69.36523;933.3433;;;;
2021/07/24 05:52:35;;;;;;;18.2;14.6;;;;;;;21.23;69.66211;933.2678;;;;
2021/07/24 05:55:00;;;;;;;20.3;14.8;;;;;;;21.03;70.72852;933.3713;;;;
2021/07/24 05:57:28;;;;;;;19.8;14.6;;;;;;;20.8;71.79199;933.5094;;;;
2021/07/24 05:59:53;;;;;;;19.3;13.4;;;;;;;21.29;70.85254;933.5452;;;;
2021/07/24 06:02:21;;;;;;;17.3;13.4;;;;;;;22.72;66.01074;933.449;;;;
2021/07/24 06:04:47;;;;;;;18.1;12.5;;;;;;;23.61;62.74414;933.4545;;;;
2021/07/24 06:07:11;;;;;;;18.2;13;;;;;;;24.42;60.19238;933.514;;;;
2021/07/24 06:09:36;;;;;;;15.3;12.3;;;;;;;24.73;59.46973;933.5405;;;;
2021/07/24 06:12:01;;;;;;;19.7;12.7;;;;;;;25.33;56.18359;933.5737;;;;
2021/07/24 06:14:27;;;;;;;18.9;13.8;;;;;;;25.08;56.37598;933.4358;;;;
2021/07/24 06:16:54;;;;;;;19.8;12.6;;;;;;;25.68;56.5;933.4026;;;;
2021/07/24 06:19:23;;;;;;;16.4;12.6;;;;;;;26.16;54.09863;933.468;;;;
2021/07/24 06:21:48;;;;;;;17.1;12.3;;;;;;;27.68;52.34766;933.5186;;;;
2021/07/24 06:24:14;;;;;;;17.3;12;;;;;;;28.51;46.68848;933.4324;;;;
2021/07/24 06:26:39;;;;;;;15.1;11.8;;;;;;;27.12;48.03711;933.4136;;;;
2021/07/24 06:29:07;;;;;;;14.8;12.1;;;;;;;25.98;50.29395;933.4419;;;;
2021/07/24 06:31:32;;;;;;;14.1;11.6;;;;;;;26.66;48.97168;933.3801;;;;
2021/07/24 06:34:02;;;;;;;12.9;11.5;;;;;;;26.41;49.05078;933.3954;;;;
2021/07/24 06:36:28;;;;;;;13.8;11.5;;;;;;;28.08;44.31543;933.4172;;;;
2021/07/24 06:38:53;;;;;;;14.2;10.9;;;;;;;28.46;45.42285;933.3386;;;;
2021/07/24 06:41:20;;;;;;;15.9;11;;;;;;;29.24;43.17871;933.3282;;;;
2021/07/24 06:43:45;;;;;;;12.3;11;;;;;;;28.99;43.75;933.3528;;;;
2021/07/24 06:46:12;;;;;;;15;11.4;;;;;;;27.09;46.99219;933.3733;;;;
2021/07/24 06:48:37;;;;;;;14.9;12.4;;;;;;;26.47;49.94629;933.3663;;;;
2021/07/24 06:51:05;;;;;;;16.1;11.9;;;;;;;25.81;51.88184;933.4049;;;;
2021/07/24 06:53:30;;;;;;;16.2;12.5;;;;;;;25.2;54.58594;933.4412;;;;
2021/07/24 06:55:59;;;;;;;14.8;12.6;;;;;;;24.86;56.46582;933.4356;;;;
2021/07/24 06:58:27;;;;;;;15;12.9;;;;;;;24.38;57.7959;933.451;;;;
2021/07/24 07:00:52;;;;;;;17.9;12.7;;;;;;;24.22;57.46973;933.3836;;;;
2021/07/24 07:03:19;;;;;;;17.3;12.4;;;;;;;23.98;57.89746;933.4442;;;;
2021/07/24 07:05:44;;;;;;;16.5;12.9;;;;;;;23.79;57.50781;933.4559;;;;
2021/07/24 07:08:10;;;;;;;18.3;13.3;;;;;;;23.72;58.14648;933.5944;;;;
2021/07/24 07:10:35;;;;;;;18.5;13.2;;;;;;;23.68;59.01172;933.6714;;;;
2021/07/24 07:13:04;;;;;;;16.8;13.3;;;;;;;23.75;64.69238;933.7855;;;;
2021/07/24 07:15:31;;;;;;;18.4;13.2;;;;;;;23.4;64.15918;934.0282;;;;
2021/07/24 07:17:59;;;;;;;16.8;13.4;;;;;;;22.83;66.37891;934.4344;;;;
2021/07/24 07:20:24;;;;;;;16.1;12.5;;;;;;;22.79;64.25879;934.4696;;;;
2021/07/24 07:22:52;;;;;;;16.7;12.9;;;;;;;22.09;68.39063;934.5302;;;;
2021/07/24 07:25:17;;;;;;;19.7;13.8;;;;;;;22.23;69.47949;934.8368;;;;
2021/07/24 07:27:46;;;;;;;17.5;14.3;;;;;;;21.93;69.83203;934.9599;;;;
2021/07/24 07:30:12;;;;;;;17.8;13.5;;;;;;;21.92;67.67285;934.9323;;;;
2021/07/24 07:32:40;;;;;;;17.7;13.5;;;;;;;21.9;68.53516;935.22;;;;
2021/07/24 07:35:05;;;;;;;16.8;13.6;;;;;;;21.8;67.38379;935.1206;;;;
2021/07/24 07:37:30;;;;;;;15.9;12.4;;;;;;;21.89;65.81738;935.0931;;;;
2021/07/24 07:39:55;;;;;;;16.3;12.1;;;;;;;22.02;65.39063;935.2274;;;;
2021/07/24 07:42:23;;;;;;;18.7;11.9;;;;;;;22.08;65.90332;935.1541;;;;
2021/07/24 07:44:48;;;;;;;16.7;12.5;;;;;;;21.92;67.64941;935.2214;;;;
2021/07/24 07:47:14;;;;;;;14.9;12.1;;;;;;;22.31;67.15723;935.3326;;;;
2021/07/24 07:49:39;;;;;;;18.2;13.3;;;;;;;22.37;69.12598;935.4608;;;;
2021/07/24 07:52:06;;;;;;;17.6;12.8;;;;;;;22.49;68.9209;935.5391;;;;
2021/07/24 07:54:33;;;;;;;16.7;13.4;;;;;;;22.45;71.10938;935.6284;;;;
2021/07/24 07:56:59;;;;;;;17.4;13.6;;;;;;;22.47;70.44336;935.6387;;;;
2021/07/24 07:59:24;;;;;;;15.5;12.7;;;;;;;22.55;70.67871;935.5697;;;;
2021/07/24 08:01:50;;;;;;;15.7;12.9;;;;;;;22.64;69.06055;935.4236;;;;
2021/07/24 08:04:15;;;;;;;17.3;13;;;;;;;22.75;69.11523;935.4073;;;;
2021/07/24 08:06:41;;;;;;;17.2;11.9;;;;;;;22.9;67.24707;935.4016;;;;
2021/07/24 08:09:06;;;;;;;16.4;12.2;;;;;;;23;67.61426;935.3706;;;;
2021/07/24 08:11:33;;;;;;;17.3;13.3;;;;;;;22.88;68.99414;935.4253;;;;
2021/07/24 08:13:58;;;;;;;16.6;12.3;;;;;;;23.02;69.33105;935.4486;;;;
2021/07/24 08:16:26;;;;;;;15.5;12.5;;;;;;;23.22;69.46875;935.4955;;;;
2021/07/24 08:18:52;;;;;;;17.8;13.1;;;;;;;23.29;69.05566;935.4481;;;;
2021/07/24 08:21:17;;;;;;;15.3;12.8;;;;;;;23.57;68.23047;935.4165;;;;
2021/07/24 08:23:44;;;;;;;17.7;13;;;;;;;23.85;68.66113;935.5156;;;;
2021/07/24 08:26:09;;;;;;;16.6;12.7;;;;;;;24.05;65.99609;935.3585;;;;
2021/07/24 08:28:37;;;;;;;17.9;12.9;;;;;;;24.3;65.58398;935.3409;;;;
2021/07/24 08:31:02;;;;;;;15;11.8;;;;;;;24.56;65.69336;935.2999;;;;
2021/07/24 08:33:27;;;;;;;17.2;12.7;;;;;;;24.74;65.16699;935.2837;;;;
2021/07/24 08:35:55;;;;;;;18.7;12.8;;;;;;;25.18;63.30664;935.2319;;;;
2021/07/24 08:38:25;;;;;;;13.7;11.8;;;;;;;25.59;60.59863;935.1295;;;;
2021/07/24 08:40:50;;;;;;;16.5;12;;;;;;;25.37;62.04492;935.0499;;;;
2021/07/24 08:43:18;;;;;;;18.8;11.6;;;;;;;25.18;62.31445;935.048;;;;
2021/07/24 08:45:43;;;;;;;14.3;11.2;;;;;;;25.91;60.13477;935.0739;;;;
2021/07/24 08:48:12;;;;;;;14.5;11;;;;;;;26.75;58.00977;935.0405;;;;
2021/07/24 08:50:37;;;;;;;14.5;11;;;;;;;26.74;55.35352;934.9359;;;;
2021/07/24 08:53:03;;;;;;;14.4;11.4;;;;;;;26.96;55.04883;934.882;;;;
2021/07/24 08:55:27;;;;;;;14.6;11;;;;;;;27.03;56.21777;934.9343;;;;
2021/07/24 08:57:53;;;;;;;13.5;11.3;;;;;;;27.47;54.57813;934.9666;;;;
2021/07/24 09:00:22;;;;;;;15.6;11.2;;;;;;;27.77;50.7793;934.8949;;;;
2021/07/24 09:02:45;;;;;;;16.6;11.4;;;;;;;27.46;50.70898;934.8427;;;;
2021/07/24 09:05:14;;;;;;;16.1;11.5;;;;;;;27.53;50.40625;934.814;;;;
2021/07/24 09:07:39;;;;;;;15.9;11.8;;;;;;;28.12;50.08203;934.7776;;;;
2021/07/24 09:10:08;;;;;;;13.7;10.9;;;;;;;27.53;53.12598;934.7063;;;;
2021/07/24 09:12:36;;;;;;;14.9;11.7;;;;;;;28.04;51.53418;934.7131;;;;
2021/07/24 09:15:01;;;;;;;13.7;11.3;;;;;;;27.69;51.83887;934.6693;;;;
2021/07/24 09:17:26;;;;;;;16.2;11.4;;;;;;;27.7;50.79492;934.6707;;;;
2021/07/24 09:19:55;;;;;;;12.5;10.6;;;;;;;28.03;52.37695;934.627;;;;
2021/07/24 09:22:20;;;;;;;13.7;10.9;;;;;;;28.19;51.00488;934.6096;;;;
2021/07/24 09:24:49;;;;;;;14.3;11.2;;;;;;;28.47;49.76367;934.5692;;;;
2021/07/24 09:27:14;;;;;;;15.9;10.8;;;;;;;29.12;49.41895;934.5309;;;;
2021/07/24 09:29:39;;;;;;;13.8;11.1;;;;;;;29.87;47.00781;934.4888;;;;
2021/07/24 09:32:06;;;;;;;10.3;9.2;;;;;;;31.46;40.74609;934.4727;;;;
2021/07/24 09:34:31;;;;;;;13;10.4;;;;;;;32.11;39.1377;934.4319;;;;
2021/07/24 09:36:56;;;;;;;15.1;10.5;;;;;;;31.79;39.48145;934.4813;;;;
2021/07/24 09:39:21;;;;;;;13.9;10.1;;;;;;;31.84;39.41504;934.4412;;;;
2021/07/24 09:41:56;;;;;;;12;9.8;;;;;;;31.44;39.33203;934.3729;;;;
2021/07/24 09:44:21;;;;;;;13;9.8;;;;;;;32.33;39.03613;934.4236;;;;
2021/07/24 09:46:46;;;;;;;11.1;9.5;;;;;;;32.4;37.50781;934.3722;;;;
2021/07/24 09:49:12;;;;;;;11.4;10.2;;;;;;;32.97;39.00879;934.347;;;;
2021/07/24 09:51:36;;;;;;;10.9;9.5;;;;;;;33.75;34.69531;934.2648;;;;
2021/07/24 09:54:02;;;;;;;11.5;9.1;;;;;;;33.71;36.59375;934.1619;;;;
2021/07/24 09:56:27;;;;;;;10.7;9.3;;;;;;;33.75;35.29688;934.0837;;;;
2021/07/24 09:58:55;;;;;;;11.2;9.2;;;;;;;33.48;35.55371;933.9871;;;;
2021/07/24 10:01:20;;;;;;;11.4;9.8;;;;;;;33.81;35.45898;933.9111;;;;
2021/07/24 10:03:49;;;;;;;12.2;9;;;;;;;33.47;36.27344;933.9163;;;;
2021/07/24 10:06:10;;;;;;;10.9;9.1;;;;;;;33.94;32.80859;933.9107;;;;
2021/07/24 10:08:36;;;;;;;11.5;9.2;;;;;;;34.29;32.77441;933.8684;;;;
2021/07/24 10:11:01;;;;;;;11.7;9.4;;;;;;;34.83;36.49023;933.837;;;;
2021/07/24 10:13:29;;;;;;;12;9.5;;;;;;;34.99;32.89648;933.8247;;;;
2021/07/24 10:15:55;;;;;;;11.4;9.4;;;;;;;34.38;34.74316;933.7803;;;;
2021/07/24 10:18:20;;;;;;;10;8.6;;;;;;;32.8;37.08398;933.7316;;;;
2021/07/24 10:20:47;;;;;;;14.2;9.4;;;;;;;33.32;36.08105;933.6786;;;;
2021/07/24 10:23:12;;;;;;;9.8;8.8;;;;;;;33.74;33.54004;933.6138;;;;
2021/07/24 10:25:41;;;;;;;12.8;9.2;;;;;;;34.08;33.56543;933.5606;;;;
2021/07/24 10:28:07;;;;;;;11.2;8.9;;;;;;;34.5;32.98145;933.4928;;;;
2021/07/24 10:30:32;;;;;;;9.9;8.9;;;;;;;34.46;30.62891;933.5108;;;;
2021/07/24 10:32:57;;;;;;;10.6;8.7;;;;;;;34.37;31.53906;933.5206;;;;
2021/07/24 10:35:22;;;;;;;10.9;8.8;;;;;;;33.76;35.62305;933.5207;;;;
2021/07/24 10:37:49;;;;;;;10.8;9.3;;;;;;;33.02;34.07617;933.4437;;;;
2021/07/24 10:40:14;;;;;;;12.5;10;;;;;;;32.38;39.55664;933.5051;;;;
2021/07/24 10:42:40;;;;;;;12.7;9.3;;;;;;;31.85;39.30762;933.4465;;;;
2021/07/24 10:45:05;;;;;;;11.1;9.6;;;;;;;31.65;39.60059;933.3702;;;;
2021/07/24 10:47:30;;;;;;;11.2;8.7;;;;;;;31.3;40.16895;933.308;;;;
2021/07/24 10:49:56;;;;;;;10.9;9.7;;;;;;;30.96;42.44629;933.2484;;;;
2021/07/24 10:52:24;;;;;;;10.6;9;;;;;;;30.72;43.34375;933.2177;;;;
2021/07/24 10:55:20;;;;;;;14.3;9.4;;;;;;;30.45;45.50488;933.2443;;;;
2021/07/24 10:57:46;;;;;;;11;8.9;;;;;;;30.27;43.80273;933.1874;;;;
2021/07/24 11:00:16;;;;;;;12.7;9.2;;;;;;;30.59;43.95313;933.2377;;;;
2021/07/24 11:02:41;;;;;;;10.1;8.5;;;;;;;30.88;43.28809;933.2837;;;;
2021/07/24 11:05:06;;;;;;;10.2;8;;;;;;;30.44;39.56738;933.1777;;;;
2021/07/24 11:07:31;;;;;;;11.5;8.6;;;;;;;30.47;44.4541;933.2202;;;;
2021/07/24 11:09:56;;;;;;;10.2;8.2;;;;;;;30.68;42.68359;933.1501;;;;
2021/07/24 11:12:25;;;;;;;11.6;8.3;;;;;;;31.15;41.91406;933.1039;;;;
2021/07/24 11:14:53;;;;;;;11;8.9;;;;;;;31.49;43.47852;933.0369;;;;
2021/07/24 11:17:23;;;;;;;11.6;9.6;;;;;;;31.49;41.47949;933.027;;;;
2021/07/24 11:19:54;;;;;;;13.4;8;;;;;;;32.19;39.45703;932.9785;;;;
2021/07/24 11:22:18;;;;;;;8.8;7.6;;;;;;;31.32;44.43066;932.8354;;;;
2021/07/24 11:24:43;;;;;;;9.7;7.9;;;;;;;31.41;41.92676;932.7816;;;;
2021/07/24 11:27:09;;;;;;;8.4;7.5;;;;;;;31.61;42.72266;932.6863;;;;
2021/07/24 11:29:34;;;;;;;10.7;8.4;;;;;;;30.91;46.74609;932.6211;;;;
2021/07/24 11:31:59;;;;;;;11;8.3;;;;;;;30.38;47.07227;932.5854;;;;
2021/07/24 11:34:25;;;;;;;10.9;8.7;;;;;;;30.41;47.00586;932.5729;;;;
2021/07/24 11:36:51;;;;;;;9.8;8.2;;;;;;;29.99;49.78906;932.5712;;;;
2021/07/24 11:39:18;;;;;;;10.8;8;;;;;;;29.55;50.89551;932.4956;;;;
2021/07/24 11:41:43;;;;;;;9.8;8.4;;;;;;;29.07;49.96191;932.4506;;;;
2021/07/24 11:44:08;;;;;;;10.7;8.6;;;;;;;28.68;51.17969;932.3746;;;;
2021/07/24 11:46:35;;;;;;;10.3;8.7;;;;;;;28.78;51.17871;932.3209;;;;
2021/07/24 11:49:00;;;;;;;10.7;8.8;;;;;;;28.43;50.34277;932.2919;;;;
2021/07/24 11:51:25;;;;;;;11;8.4;;;;;;;28.04;50.73828;932.3226;;;;
2021/07/24 11:53:50;;;;;;;13.4;9.1;;;;;;;28.06;52.99805;932.243;;;;
2021/07/24 11:56:17;;;;;;;10.8;8.7;;;;;;;28.86;48.90234;932.2784;;;;
2021/07/24 11:58:42;;;;;;;10.3;8.6;;;;;;;29;50.31055;932.2538;;;;
2021/07/24 12:01:08;;;;;;;10.3;8.4;;;;;;;29.53;46.80664;932.2368;;;;
2021/07/24 12:03:33;;;;;;;11.1;8.6;;;;;;;29.51;46.54199;932.2356;;;;
2021/07/24 12:06:02;;;;;;;9.3;8.1;;;;;;;29.58;44.67871;932.2375;;;;
2021/07/24 12:08:26;;;;;;;10.8;8.1;;;;;;;29.59;45.28613;932.2372;;;;
2021/07/24 12:10:54;;;;;;;9.1;7.9;;;;;;;29.03;46.33691;932.2277;;;;
2021/07/24 12:13:19;;;;;;;12.1;8.7;;;;;;;29.11;45.71484;932.2303;;;;
2021/07/24 12:15:45;;;;;;;11.3;8.7;;;;;;;29;47.98926;932.2721;;;;
2021/07/24 12:18:10;;;;;;;11.6;8.4;;;;;;;29.29;45.80469;932.1543;;;;
2021/07/24 12:20:35;;;;;;;10;8.5;;;;;;;29.4;45.64941;932.1964;;;;
2021/07/24 12:23:01;;;;;;;11.6;7.9;;;;;;;29.46;45.22559;932.1104;;;;
2021/07/24 12:25:28;;;;;;;10.9;8.4;;;;;;;29.19;47.22363;932.1802;;;;
2021/07/24 12:27:53;;;;;;;11;8.4;;;;;;;29.07;45.53223;932.1496;;;;
2021/07/24 12:30:18;;;;;;;10.6;8.2;;;;;;;29.2;44.98535;932.1066;;;;
2021/07/24 12:32:43;;;;;;;10.4;8.7;;;;;;;29.01;45.7168;932.1822;;;;
2021/07/24 12:35:10;;;;;;;10.7;8.7;;;;;;;28.39;49.89844;932.1649;;;;
2021/07/24 12:37:35;;;;;;;10.5;8.8;;;;;;;28.5;47.68555;932.1719;;;;
2021/07/24 12:40:01;;;;;;;13.4;8.7;;;;;;;29.07;47.28223;932.1863;;;;
2021/07/24 12:42:27;;;;;;;9.4;8.4;;;;;;;29.43;48.5957;932.157;;;;
2021/07/24 12:44:52;;;;;;;12.7;8.9;;;;;;;29.12;49.1582;932.1465;;;;
2021/07/24 12:47:18;;;;;;;10.4;8.9;;;;;;;29.4;48.58105;932.1248;;;;
2021/07/24 12:49:47;;;;;;;11.8;9.1;;;;;;;29.34;47.12012;932.1758;;;;
2021/07/24 12:52:11;;;;;;;11.2;8.7;;;;;;;28.98;48.96289;932.1864;;;;
2021/07/24 12:54:39;;;;;;;10.2;8.9;;;;;;;28.14;52.54395;932.0974;;;;
2021/07/24 12:57:05;;;;;;;11.7;9.1;;;;;;;27.97;55.30469;932.1265;;;;
2021/07/24 12:59:30;;;;;;;12.9;9.4;;;;;;;28.3;50.36328;932.0985;;;;
2021/07/24 13:01:57;;;;;;;12.4;9.4;;;;;;;28.32;52.82715;932.1083;;;;
2021/07/24 13:04:22;;;;;;;12;9.1;;;;;;;28.08;52.0625;932.1049;;;;
2021/07/24 13:06:47;;;;;;;12.3;9.9;;;;;;;27.85;53.75684;932.0736;;;;
2021/07/24 13:09:12;;;;;;;12.5;8.8;;;;;;;27.46;55.46582;932.0235;;;;
2021/07/24 13:11:40;;;;;;;10.9;8.5;;;;;;;27.43;55.61621;932.0161;;;;
2021/07/24 13:14:05;;;;;;;11.8;9.4;;;;;;;27.68;53.98633;932.0818;;;;
2021/07/24 13:16:35;;;;;;;11.2;9.9;;;;;;;27.79;52.43164;932.2056;;;;
2021/07/24 13:18:57;;;;;;;12.3;9.2;;;;;;;27.1;55.17188;932.2941;;;;
2021/07/24 13:21:25;;;;;;;11.8;9.3;;;;;;;27.27;53.23633;932.2312;;;;
2021/07/24 13:23:54;;;;;;;12.4;9.6;;;;;;;27.01;54.2373;932.2142;;;;
2021/07/24 13:28:42;;;;;;;12.2;9.2;;;;;;;26.75;54.78711;932.2726;;;;
2021/07/24 13:31:05;;;;;;;12.8;10.1;;;;;;;25.93;58.64746;932.301;;;;
2021/07/24 13:33:32;;;;;;;12.2;10.1;;;;;;;26.06;57.77637;932.2668;;;;
2021/07/24 13:35:57;;;;;;;13.9;10.1;;;;;;;26.08;57.16406;932.3169;;;;
2021/07/24 13:38:28;;;;;;;14.1;10.1;;;;;;;26.12;56.25879;932.3817;;;;
2021/07/24 13:40:54;;;;;;;14.1;10.2;;;;;;;26.08;56.85645;932.4256;;;;
2021/07/24 13:43:22;;;;;;;14.2;10;;;;;;;25.98;56.71484;932.498;;;;
2021/07/24 13:45:47;;;;;;;13.6;10.4;;;;;;;25.89;56.9873;932.5211;;;;
2021/07/24 13:48:13;;;;;;;16;10.8;;;;;;;25.95;58.03516;932.6552;;;;
2021/07/24 13:50:38;;;;;;;16;11.1;;;;;;;25.72;61.49023;932.9162;;;;
2021/07/24 13:53:04;;;;;;;15.5;11.6;;;;;;;25.55;62.80371;933.1965;;;;
2021/07/24 13:55:29;;;;;;;15.2;11.5;;;;;;;25.53;64.3125;933.2767;;;;
2021/07/24 13:57:57;;;;;;;17.7;12.8;;;;;;;25.15;68.50781;933.2891;;;;
2021/07/24 14:00:27;;;;;;;18.9;11.9;;;;;;;24.86;71.84863;933.2626;;;;
2021/07/24 14:02:52;;;;;;;18.4;12.8;;;;;;;24.42;75.04004;933.2366;;;;
2021/07/24 14:05:21;;;;;;;16.7;12.1;;;;;;;24.66;74.95215;933.0966;;;;
2021/07/24 14:07:48;;;;;;;18;12.7;;;;;;;24.86;73.84277;933.0762;;;;